• Join FlightAware (Why Join?)
  • Login
  • US Flag 
07:22AM EST


 

Airport Tracker/Info


-or-


 

Live Flight TrackerFlight Track Log ✈ BJS439 ✈ 25-May-2013 ✈ KYIP - KIAD

Flight Track Log - Related Links

Times and Time Zones

All times are in EDT time to prevent confusion due to time zone crossing. See the BJS439 flight status page for this flight to view local times or setup timezone preferences in your user account.

Time Position Orientation Groundspeed Altitude Reporting Facility
EDT Latitude Longitude Course Direction KTS MPH feet Rate Location/Type
03:44PM 42.2475 -83.5172 317° Northwest 149 171 1,600  Level Cleveland Center
03:45PM 42.2819 -83.5611 317° Northwest 173 199 4,700 2,977 Climbing Cleveland Center
03:46PM 42.2781 -83.6339 266° West 199 229 8,000 2,866 Climbing Cleveland Center
03:47PM 42.1986 -83.6356 181° South 290 334 11,100 2,198 Climbing Cleveland Center
03:48PM 42.1361 -83.5625 139° Southeast 292 336 12,800 3,025 Climbing Cleveland Center
03:49PM 42.1311 -83.4250 93° East 303 349 17,100 3,620 Climbing Cleveland Center
03:50PM 42.1264 -83.2792 92° East 354 407 20,100 2,700 Climbing Cleveland Center
03:51PM 42.1178 -83.1053 94° East 393 452 22,500 2,723 Climbing Cleveland Center
03:52PM 42.1108 -82.9456 93° East 418 481 25,500 2,800 Climbing Cleveland Center
03:53PM 42.1036 -82.7772 93° East 432 497 28,100 1,967 Climbing Cleveland Center
03:55PM 42.0806 -82.4294 95° East 456 525 31,400 1,624 Climbing Cleveland Center
03:56PM 42.0522 -82.2414 101° East 478 550 33,000 1,500 Climbing Cleveland Center
03:57PM 42.0047 -82.0614 109° East 501 577 34,400 1,462 Climbing Cleveland Center
03:58PM 41.8936 -81.9247 138° Southeast 512 589 35,900 1,289 Climbing Cleveland Center
03:59PM 41.7636 -81.8164 148° Southeast 522 601 37,000 545 Climbing Cleveland Center
04:00PM 41.6356 -81.6972 145° Southeast 557 641 37,000  Level Cleveland Center
04:01PM 41.5200 -81.5897 145° Southeast 563 648 37,000  Level Cleveland Center
04:02PM 41.3958 -81.4689 144° Southeast 563 648 37,000  Level Cleveland Center
04:03PM 41.2550 -81.3372 145° Southeast 563 648 37,000  Level Cleveland Center
04:04PM 41.1244 -81.2225 146° Southeast 563 648 37,000  Level Cleveland Center
04:05PM 40.9767 -81.1553 161° South 557 641 37,000  Level Cleveland Center
04:06PM 40.8311 -81.1044 165° South 552 635 37,000  Level Cleveland Center
04:07PM 40.6853 -81.0514 165° South 552 635 37,000  Level Cleveland Center
04:08PM 40.5606 -81.0039 164° South 531 611 37,000  Level Cleveland Center
04:09PM 40.4167 -80.9539 165° South 531 611 37,000  Level Cleveland Center
04:10PM 40.2711 -80.9042 165° South 531 611 37,000  Level Cleveland Center
04:11PM 40.1314 -80.8547 165° South 531 611 37,000  Level Cleveland Center
04:12PM 39.9942 -80.7728 155° Southeast 531 611 37,000 -99 Level Cleveland Center
04:13PM 39.9067 -80.6156 126° Southeast 517 595 36,800 -645 Descending Cleveland Center
04:14PM 39.8400 -80.4453 117° Southeast 518 596 35,700 -836 Descending Cleveland Center
04:16PM 39.7025 -80.1525 121° Southeast 549 632 34,500 -3,202 Descending Washington Center
04:17PM 39.6211 -79.9856 122° Southeast 554 638 27,000 -2,420 Descending Washington Center
04:18PM 39.5525 -79.8092 117° Southeast 549 632 29,700 198 Climbing Washington Center
04:19PM 39.5208 -79.6353 103° East 521 600 27,400 -1,339 Descending Washington Center
04:20PM 39.4911 -79.4642 103° East 501 577 27,000 -1,008 Descending Washington Center
04:21PM 39.4589 -79.2956 104° East 490 564 25,400 -2,288 Descending Washington Center
04:22PM 39.4225 -79.1164 105° East 478 550 22,500 -2,777 Descending Washington Center
04:23PM 39.3956 -78.9647 103° East 453 521 19,800 -2,579 Descending Washington Center
04:24PM 39.3706 -78.8186 102° East 434 499 17,300 -2,380 Descending Washington Center
04:25PM 39.3447 -78.6833 104° East 409 471 15,000 -2,182 Descending Washington Center
04:26PM 39.3208 -78.5533 103° East 391 450 12,900 -1,800 Descending Washington Center
04:27PM 39.2989 -78.4264 103° East 371 427 11,400 -950 Descending Washington Center
04:28PM 39.2600 -78.3125 114° Southeast 360 414 11,000 -356 Descending Washington Center
04:29PM 39.2078 -78.2194 126° Southeast 339 390 10,700 -1,059 Descending Washington Center
04:30PM 39.1597 -78.1267 124° Southeast 325 374 8,900 -1,686 Descending Washington Center
04:31PM 39.1136 -78.0394 124° Southeast 311 358 7,300 -1,339 Descending Washington Center
04:32PM 39.0675 -77.9522 124° Southeast 300 345 6,200 -645 Descending Washington Center
04:33PM 39.0233 -77.8653 123° Southeast 293 337 6,000 -101 Descending Washington Center
04:34PM 38.9769 -77.7786 125° Southeast 293 337 6,000  Level Washington Center
04:35PM 38.9558 -77.6817 106° East 280 322 6,000 -784 Level Washington Center
04:37PM 38.9000 -77.5500 119° Southeast 255 293 4,000 -1,302 Descending Potomac TRACON
04:39PM 38.8833 -77.4333 100° East 148 170 1,400 -1,133 Descending Potomac TRACON
04:40PM 38.9167 -77.4333 360° North 113 130 600 -800 Descending Potomac TRACON
04:42PM 38.9474 -77.4599 326° Northwest  Level Estimated
04:49PM 38.9474 -77.4599 322° Northwest  Level Estimated
04:50PM 38.9474 -77.4599 322° Northwest  Level Estimated
04:51PM 38.9474 -77.4599 322° Northwest  Level Estimated
04:52PM 38.9474 -77.4599 322° Northwest  Level Estimated